createdAt,value
2024-04-26T00:00:18.740Z,21.57
2024-04-26T00:01:18.848Z,21.57
2024-04-26T00:02:18.942Z,21.57
2024-04-26T00:03:18.998Z,21.57
2024-04-26T00:04:19.069Z,21.56
2024-04-26T00:05:19.091Z,21.56
2024-04-26T00:06:19.134Z,21.56
2024-04-26T00:07:19.205Z,21.55
2024-04-26T00:08:19.328Z,21.55
2024-04-26T00:09:19.375Z,21.54
2024-04-26T00:10:19.449Z,21.54
2024-04-26T00:11:19.556Z,21.53
2024-04-26T00:12:19.781Z,21.53
2024-04-26T00:13:19.662Z,21.52
2024-04-26T00:14:19.720Z,21.52
2024-04-26T00:15:19.803Z,21.51
2024-04-26T00:16:19.931Z,21.52
2024-04-26T00:17:19.938Z,21.51
2024-04-26T00:18:20.271Z,21.51
2024-04-26T00:19:20.118Z,21.49
2024-04-26T00:20:20.162Z,21.50
2024-04-26T00:21:20.304Z,21.49
2024-04-26T00:22:20.336Z,21.49
2024-04-26T00:23:20.441Z,21.49
2024-04-26T00:24:20.513Z,21.48
2024-04-26T00:25:20.566Z,21.46
2024-04-26T00:26:20.597Z,21.47
2024-04-26T00:27:20.742Z,21.47
2024-04-26T00:28:20.791Z,21.46
2024-04-26T00:29:20.832Z,21.46
2024-04-26T00:30:20.921Z,21.46
2024-04-26T00:31:20.989Z,21.45
2024-04-26T00:32:21.191Z,21.45
2024-04-26T00:33:21.270Z,21.44
2024-04-26T00:34:21.277Z,21.45
2024-04-26T00:35:21.348Z,21.43
2024-04-26T00:36:21.403Z,21.41
2024-04-26T00:37:21.463Z,21.42
2024-04-26T00:38:21.556Z,21.41
2024-04-26T00:39:21.637Z,21.40
2024-04-26T00:40:21.705Z,21.41
2024-04-26T00:41:21.812Z,21.40
2024-04-26T00:42:21.877Z,21.40
2024-04-26T00:43:21.927Z,21.40
2024-04-26T00:44:22.958Z,21.39
2024-04-26T00:45:22.095Z,21.39
2024-04-26T00:46:22.160Z,21.39
2024-04-26T00:47:22.293Z,21.38
2024-04-26T00:48:22.527Z,21.37
2024-04-26T00:49:22.390Z,21.36
2024-04-26T00:50:22.666Z,21.36
2024-04-26T00:51:22.616Z,21.35
2024-04-26T00:52:22.643Z,21.34
2024-04-26T00:53:22.786Z,21.34
2024-04-26T00:54:22.828Z,21.32
2024-04-26T00:55:22.937Z,21.33
2024-04-26T00:56:23.045Z,21.32
2024-04-26T00:57:23.095Z,21.31
2024-04-26T00:58:23.181Z,21.32
2024-04-26T00:59:23.286Z,21.32
2024-04-26T01:00:23.320Z,21.31
2024-04-26T01:01:23.486Z,21.31
2024-04-26T01:02:23.515Z,21.31
2024-04-26T01:03:23.611Z,21.31
2024-04-26T01:04:23.734Z,21.30
2024-04-26T01:05:23.799Z,21.30
2024-04-26T01:06:23.868Z,21.30
2024-04-26T01:07:23.936Z,21.30
2024-04-26T01:08:24.038Z,21.30
2024-04-26T01:09:24.117Z,21.30
2024-04-26T01:10:24.199Z,21.30
2024-04-26T01:11:24.366Z,21.29
2024-04-26T01:12:24.357Z,21.30
2024-04-26T01:13:24.477Z,21.29
2024-04-26T01:14:24.550Z,21.29
2024-04-26T01:15:24.601Z,21.29
2024-04-26T01:16:24.695Z,21.29
2024-04-26T01:17:24.874Z,21.28
2024-04-26T01:18:25.057Z,21.26
2024-04-26T01:19:24.990Z,21.27
2024-04-26T01:20:25.079Z,21.27
2024-04-26T01:21:25.169Z,21.28
2024-04-26T01:22:25.262Z,21.28
2024-04-26T01:23:25.343Z,21.27
2024-04-26T01:24:25.422Z,21.28
2024-04-26T01:25:25.512Z,21.27
2024-04-26T01:26:25.627Z,21.28
2024-04-26T01:27:25.665Z,21.28
2024-04-26T01:28:25.754Z,21.27
2024-04-26T01:29:25.865Z,21.27
2024-04-26T01:30:25.936Z,21.26
2024-04-26T01:31:26.936Z,21.27
2024-04-26T01:32:26.182Z,21.27
2024-04-26T01:33:26.324Z,21.27
2024-04-26T01:34:26.312Z,21.26
2024-04-26T01:35:26.398Z,21.26
2024-04-26T01:36:26.488Z,21.25
2024-04-26T01:37:26.570Z,21.25
2024-04-26T01:38:26.715Z,21.24
2024-04-26T01:39:26.748Z,21.24
2024-04-26T01:40:26.870Z,21.23
2024-04-26T01:41:26.990Z,21.22
2024-04-26T01:42:27.055Z,21.22
2024-04-26T01:43:27.951Z,21.21
2024-04-26T01:44:27.258Z,21.21
2024-04-26T01:45:27.296Z,21.20
2024-04-26T01:46:27.418Z,21.21
2024-04-26T01:47:27.803Z,21.22
2024-04-26T01:48:27.809Z,21.21
2024-04-26T01:49:27.679Z,21.19
2024-04-26T01:50:27.829Z,21.19
2024-04-26T01:51:27.871Z,21.19
2024-04-26T01:52:27.974Z,21.19
2024-04-26T01:53:28.101Z,21.19
2024-04-26T01:54:28.156Z,21.19
2024-04-26T01:55:28.262Z,21.17
2024-04-26T01:56:28.388Z,21.17
2024-04-26T01:57:28.485Z,21.18
2024-04-26T01:58:28.973Z,21.17
2024-04-26T01:59:28.639Z,21.16
2024-04-26T02:00:28.777Z,21.15
2024-04-26T02:01:28.802Z,21.15
2024-04-26T02:02:29.046Z,21.14
2024-04-26T02:03:29.134Z,21.13
2024-04-26T02:04:29.100Z,21.14
2024-04-26T02:05:29.221Z,21.12
2024-04-26T02:06:29.295Z,21.12
2024-04-26T02:07:29.384Z,21.12
2024-04-26T02:08:29.501Z,21.12
2024-04-26T02:09:29.571Z,21.11
2024-04-26T02:10:29.664Z,21.11
2024-04-26T02:11:29.973Z,21.11
2024-04-26T02:12:29.911Z,21.10
2024-04-26T02:13:29.940Z,21.11
2024-04-26T02:14:30.065Z,21.10
2024-04-26T02:15:30.134Z,21.11
2024-04-26T02:16:30.318Z,21.11
2024-04-26T02:17:30.530Z,21.09
2024-04-26T02:18:30.611Z,21.09
2024-04-26T02:19:30.491Z,21.07
2024-04-26T02:20:30.632Z,21.07
2024-04-26T02:21:30.699Z,21.07
2024-04-26T02:22:30.800Z,21.06
2024-04-26T02:23:30.928Z,21.06
2024-04-26T02:24:31.015Z,21.06
2024-04-26T02:25:31.114Z,21.05
2024-04-26T02:26:31.219Z,21.06
2024-04-26T02:27:31.473Z,21.05
2024-04-26T02:28:31.385Z,21.05
2024-04-26T02:29:31.499Z,21.05
2024-04-26T02:30:31.568Z,21.06
2024-04-26T02:31:31.690Z,21.05
2024-04-26T02:32:31.949Z,21.05
2024-04-26T02:33:32.048Z,21.03
2024-04-26T02:34:31.937Z,21.04
2024-04-26T02:35:32.060Z,21.03
2024-04-26T02:36:32.113Z,21.03
2024-04-26T02:37:32.233Z,21.03
2024-04-26T02:38:32.422Z,21.02
2024-04-26T02:39:32.426Z,21.02
2024-04-26T02:40:32.543Z,21.02
2024-04-26T02:41:32.667Z,21.00
2024-04-26T02:42:32.707Z,21.00
2024-04-26T02:43:32.798Z,21.00
2024-04-26T02:44:32.977Z,21.00
2024-04-26T02:45:33.023Z,21.00
2024-04-26T02:46:33.096Z,21.00
2024-04-26T02:48:36.020Z,20.98
2024-04-26T02:49:35.782Z,20.99
2024-04-26T02:50:35.776Z,21.00
2024-04-26T02:51:35.760Z,21.00
2024-04-26T02:52:35.754Z,21.00
2024-04-26T02:53:35.876Z,21.01
2024-04-26T02:54:35.765Z,21.00
2024-04-26T02:55:35.797Z,20.99
2024-04-26T02:56:35.782Z,21.00
2024-04-26T02:57:35.755Z,20.99
2024-04-26T02:58:35.804Z,20.99
2024-04-26T02:59:35.802Z,20.99
2024-04-26T03:00:35.845Z,20.99
2024-04-26T03:01:35.860Z,20.98
2024-04-26T03:02:35.886Z,20.98
2024-04-26T03:03:35.923Z,20.98
2024-04-26T03:04:35.851Z,20.97
2024-04-26T03:05:35.839Z,20.96
2024-04-26T03:06:35.796Z,20.96
2024-04-26T03:07:35.771Z,20.96
2024-04-26T03:08:35.802Z,20.96
2024-04-26T03:09:35.800Z,20.96
2024-04-26T03:10:35.771Z,20.96
2024-04-26T03:11:35.885Z,20.96
2024-04-26T03:12:35.930Z,20.96
2024-04-26T03:13:35.780Z,20.95
2024-04-26T03:14:35.840Z,20.95
2024-04-26T03:15:35.770Z,20.95
2024-04-26T03:16:35.829Z,20.96
2024-04-26T03:17:35.930Z,20.96
2024-04-26T03:18:35.918Z,20.96
2024-04-26T03:19:35.814Z,20.96
2024-04-26T03:20:35.993Z,20.96
2024-04-26T03:21:36.882Z,20.95
2024-04-26T03:22:36.100Z,20.95
2024-04-26T03:23:36.222Z,20.95
2024-04-26T03:24:36.297Z,20.94
2024-04-26T03:25:36.424Z,20.95
2024-04-26T03:26:36.550Z,20.95
2024-04-26T03:27:36.579Z,20.96
2024-04-26T03:28:36.687Z,20.96
2024-04-26T03:29:36.802Z,20.96
2024-04-26T03:30:36.838Z,20.96
2024-04-26T03:31:37.026Z,20.96
2024-04-26T03:32:37.098Z,20.96
2024-04-26T03:33:37.403Z,20.97
2024-04-26T03:34:37.172Z,20.96
2024-04-26T03:35:37.334Z,20.96
2024-04-26T03:36:37.405Z,20.95
2024-04-26T03:37:37.470Z,20.95
2024-04-26T03:38:37.638Z,20.96
2024-04-26T03:39:37.661Z,20.96
2024-04-26T03:40:37.764Z,20.95
2024-04-26T03:41:37.857Z,20.95
2024-04-26T03:42:37.942Z,20.94
2024-04-26T03:43:38.050Z,20.93
2024-04-26T03:44:38.139Z,20.93
2024-04-26T03:45:38.190Z,20.93
2024-04-26T03:46:38.301Z,20.93
2024-04-26T03:47:38.593Z,20.92
2024-04-26T03:48:38.648Z,20.92
2024-04-26T03:49:38.673Z,20.91
2024-04-26T03:50:38.749Z,20.91
2024-04-26T03:51:38.783Z,20.91
2024-04-26T03:52:38.967Z,20.91
2024-04-26T03:53:38.999Z,20.91
2024-04-26T03:54:39.026Z,20.91
2024-04-26T03:55:39.131Z,20.89
2024-04-26T03:56:39.288Z,20.91
2024-04-26T03:57:39.304Z,20.91
2024-04-26T03:58:39.420Z,20.90
2024-04-26T03:59:39.541Z,20.90
2024-04-26T04:00:39.590Z,20.90
2024-04-26T04:01:39.670Z,20.90
2024-04-26T04:02:39.803Z,20.89
2024-04-26T04:03:40.006Z,20.89
2024-04-26T04:04:40.017Z,20.89
2024-04-26T04:05:40.063Z,20.89
2024-04-26T04:06:40.154Z,20.88
2024-04-26T04:07:40.208Z,20.90
2024-04-26T04:08:40.376Z,20.90
2024-04-26T04:09:40.387Z,20.89
2024-04-26T04:10:40.516Z,20.89
2024-04-26T04:11:40.665Z,20.89
2024-04-26T04:12:40.838Z,20.89
2024-04-26T04:13:40.779Z,20.88
2024-04-26T04:14:40.904Z,20.89
2024-04-26T04:15:40.974Z,20.88
2024-04-26T04:16:41.068Z,20.87
2024-04-26T04:17:41.286Z,20.87
2024-04-26T04:18:41.272Z,20.87
2024-04-26T04:19:41.339Z,20.86
2024-04-26T04:20:41.481Z,20.86
2024-04-26T04:21:41.514Z,20.85
2024-04-26T04:22:41.622Z,20.84
2024-04-26T04:23:41.729Z,20.84
2024-04-26T04:24:41.786Z,20.84
2024-04-26T04:25:41.937Z,20.84
2024-04-26T04:26:42.025Z,20.84
2024-04-26T04:27:42.071Z,20.84
2024-04-26T04:28:42.180Z,20.84
2024-04-26T04:29:42.320Z,20.83
2024-04-26T04:30:49.547Z,20.82
2024-04-26T04:31:56.719Z,20.79
2024-04-26T04:32:56.920Z,20.81
2024-04-26T04:33:56.856Z,20.82
2024-04-26T04:34:56.849Z,20.83
2024-04-26T04:35:56.767Z,20.82
2024-04-26T04:36:56.727Z,20.83
2024-04-26T04:37:56.692Z,20.83
2024-04-26T04:38:56.758Z,20.84
2024-04-26T04:39:56.709Z,20.85
2024-04-26T04:40:56.801Z,20.85
2024-04-26T04:41:56.774Z,20.85
2024-04-26T04:42:56.714Z,20.86
2024-04-26T04:43:56.742Z,20.86
2024-04-26T04:44:56.810Z,20.86
2024-04-26T04:45:56.727Z,20.87
2024-04-26T04:46:56.761Z,20.86
2024-04-26T04:47:56.856Z,20.86
2024-04-26T04:48:56.869Z,20.86
2024-04-26T04:49:56.763Z,20.86
2024-04-26T04:50:56.790Z,20.87
2024-04-26T04:51:56.765Z,20.87
2024-04-26T04:52:56.746Z,20.88
2024-04-26T04:53:56.823Z,20.89
2024-04-26T04:54:56.758Z,20.89
2024-04-26T04:55:56.747Z,20.90
2024-04-26T04:56:56.820Z,20.90
2024-04-26T04:57:56.766Z,20.92
2024-04-26T04:58:56.774Z,20.92
2024-04-26T04:59:56.796Z,20.93
2024-04-26T05:00:56.821Z,20.94
2024-04-26T05:01:56.745Z,20.94
2024-04-26T05:02:56.896Z,20.94
2024-04-26T05:03:57.070Z,20.95
2024-04-26T05:04:56.855Z,20.94
2024-04-26T05:05:56.944Z,20.93
2024-04-26T05:06:57.002Z,20.92
2024-04-26T05:07:57.085Z,20.90
2024-04-26T05:08:57.249Z,20.87
2024-04-26T05:09:57.254Z,20.84
2024-04-26T05:10:57.337Z,20.80
2024-04-26T05:11:57.466Z,20.75
2024-04-26T05:12:57.564Z,20.71
2024-04-26T05:13:57.616Z,20.67
2024-04-26T05:14:57.785Z,20.65
2024-04-26T05:15:57.780Z,20.63
2024-04-26T05:16:57.854Z,20.61
2024-04-26T05:17:58.172Z,20.59
2024-04-26T05:18:58.253Z,20.57
2024-04-26T05:19:58.116Z,20.56
2024-04-26T05:20:58.291Z,20.53
2024-04-26T05:21:58.307Z,20.51
2024-04-26T05:22:58.413Z,20.49
2024-04-26T05:23:58.539Z,20.48
2024-04-26T05:24:58.577Z,20.46
2024-04-26T05:25:58.706Z,20.44
2024-04-26T05:26:58.812Z,20.43
2024-04-26T05:27:58.861Z,20.42
2024-04-26T05:28:58.962Z,20.41
2024-04-26T05:29:59.164Z,20.40
2024-04-26T05:30:59.167Z,20.40
2024-04-26T05:31:59.284Z,20.39
2024-04-26T05:32:59.512Z,20.40
2024-04-26T05:33:59.669Z,20.40
2024-04-26T05:34:59.562Z,20.39
2024-04-26T05:35:59.696Z,20.38
2024-04-26T05:36:59.770Z,20.36
2024-04-26T05:37:59.837Z,20.37
2024-04-26T05:39:00.093Z,20.37
2024-04-26T05:40:00.187Z,20.39
2024-04-26T05:41:00.145Z,20.42
2024-04-26T05:42:00.339Z,20.47
2024-04-26T05:43:00.349Z,20.51
2024-04-26T05:44:00.443Z,20.56
2024-04-26T05:45:00.637Z,20.60
2024-04-26T05:46:00.621Z,20.64
2024-04-26T05:47:00.806Z,20.68
2024-04-26T05:48:00.954Z,20.73
2024-04-26T05:49:00.973Z,20.78
2024-04-26T05:50:00.978Z,20.82
2024-04-26T05:51:01.186Z,20.87
2024-04-26T05:52:01.182Z,20.93
2024-04-26T05:53:01.242Z,20.99
2024-04-26T05:54:01.424Z,21.04
2024-04-26T05:55:01.453Z,21.08
2024-04-26T05:56:01.647Z,21.14
2024-04-26T05:57:01.722Z,21.19
2024-04-26T05:58:01.691Z,21.26
2024-04-26T05:59:01.807Z,21.33
2024-04-26T06:00:02.016Z,21.40
2024-04-26T06:01:01.960Z,21.47
2024-04-26T06:02:01.944Z,21.53
2024-04-26T06:03:02.165Z,21.59
2024-04-26T06:04:02.402Z,21.64
2024-04-26T06:05:02.221Z,21.71
2024-04-26T06:06:02.281Z,21.75
2024-04-26T06:07:02.301Z,21.80
2024-04-26T06:08:02.358Z,21.84
2024-04-26T06:09:02.592Z,21.87
2024-04-26T06:10:02.507Z,21.92
2024-04-26T06:11:02.669Z,21.96
2024-04-26T06:12:02.768Z,21.99
2024-04-26T06:13:09.482Z,22.01
2024-04-26T06:14:03.889Z,22.04
2024-04-26T06:15:02.817Z,22.07
2024-04-26T06:16:02.789Z,22.10
2024-04-26T06:17:02.805Z,22.12
2024-04-26T06:18:03.048Z,22.14
2024-04-26T06:19:02.953Z,22.17
2024-04-26T06:20:02.810Z,22.18
2024-04-26T06:21:02.926Z,22.21
2024-04-26T06:22:02.852Z,22.23
2024-04-26T06:23:03.653Z,22.24
2024-04-26T06:24:02.944Z,22.25
2024-04-26T06:25:02.820Z,22.26
2024-04-26T06:26:02.827Z,22.28
2024-04-26T06:27:02.898Z,22.29
2024-04-26T06:28:02.828Z,22.31
2024-04-26T06:29:02.869Z,22.32
2024-04-26T06:30:02.992Z,22.33
2024-04-26T06:31:03.032Z,22.34
2024-04-26T06:32:03.223Z,22.35
2024-04-26T06:33:03.422Z,22.37
2024-04-26T06:34:03.464Z,22.38
2024-04-26T06:35:03.453Z,22.38
2024-04-26T06:36:03.641Z,22.41
2024-04-26T06:37:03.690Z,22.41
2024-04-26T06:38:03.772Z,22.43
2024-04-26T06:39:04.003Z,22.44
2024-04-26T06:40:04.018Z,22.45
2024-04-26T06:41:04.077Z,22.46
2024-04-26T06:42:04.261Z,22.46
2024-04-26T06:43:04.319Z,22.49
2024-04-26T06:44:12.417Z,22.50
2024-04-26T06:45:05.621Z,22.51
2024-04-26T06:46:04.495Z,22.52
2024-04-26T06:47:04.671Z,22.54
2024-04-26T06:48:04.640Z,22.56
2024-04-26T06:49:04.672Z,22.57
2024-04-26T06:50:04.577Z,22.55
2024-04-26T06:51:04.541Z,22.48
2024-04-26T06:52:04.517Z,22.43
2024-04-26T06:53:04.589Z,22.38
2024-04-26T06:54:04.786Z,22.37
2024-04-26T06:55:04.756Z,22.34
2024-04-26T06:56:04.831Z,22.32
2024-04-26T06:57:05.033Z,22.29
2024-04-26T06:58:05.006Z,22.25
2024-04-26T06:59:05.109Z,22.24
2024-04-26T07:00:05.304Z,22.21
2024-04-26T07:01:08.238Z,22.22
2024-04-26T07:02:05.443Z,22.23
2024-04-26T07:03:05.422Z,22.20
2024-04-26T07:04:05.661Z,22.17
2024-04-26T07:05:05.296Z,22.12
2024-04-26T07:06:05.315Z,22.03
2024-04-26T07:07:05.255Z,22.00
2024-04-26T07:08:05.270Z,21.88
2024-04-26T07:09:05.280Z,21.75
2024-04-26T07:10:05.268Z,21.76
2024-04-26T07:11:05.328Z,21.78
2024-04-26T07:12:05.303Z,21.76
2024-04-26T07:13:05.267Z,21.66
2024-04-26T07:14:05.274Z,21.52
2024-04-26T07:15:05.353Z,21.49
2024-04-26T07:16:11.256Z,21.53
2024-04-26T07:17:06.286Z,21.55
2024-04-26T07:18:05.416Z,21.46
2024-04-26T07:19:05.414Z,21.43
2024-04-26T07:20:05.392Z,21.49
2024-04-26T07:21:05.368Z,21.52
2024-04-26T07:22:05.318Z,21.55
2024-04-26T07:23:05.267Z,21.54
2024-04-26T07:24:05.563Z,21.43
2024-04-26T07:25:05.289Z,21.47
2024-04-26T07:26:05.312Z,21.56
2024-04-26T07:27:05.534Z,21.67
2024-04-26T07:28:05.349Z,21.77
2024-04-26T07:29:15.053Z,21.87
2024-04-26T07:30:06.400Z,21.96
2024-04-26T07:31:05.372Z,22.05
2024-04-26T07:32:05.424Z,22.13
2024-04-26T07:33:05.485Z,22.20
2024-04-26T07:34:05.731Z,22.25
2024-04-26T07:35:05.424Z,22.32
2024-04-26T07:36:05.435Z,22.37
2024-04-26T07:37:05.430Z,22.42
2024-04-26T07:38:05.417Z,22.46
2024-04-26T07:39:05.474Z,22.49
2024-04-26T07:40:05.440Z,22.52
2024-04-26T07:41:05.484Z,22.56
2024-04-26T07:42:05.563Z,22.59
2024-04-26T07:43:05.447Z,22.62
2024-04-26T07:44:05.451Z,22.64
2024-04-26T07:45:05.617Z,22.66
2024-04-26T07:46:05.464Z,22.68
2024-04-26T07:47:05.521Z,22.70
2024-04-26T07:48:05.854Z,22.73
2024-04-26T07:49:08.415Z,22.75
2024-04-26T07:50:05.914Z,22.78
2024-04-26T07:51:05.930Z,22.81
2024-04-26T07:52:05.741Z,22.83
2024-04-26T07:53:05.784Z,22.84
2024-04-26T07:54:05.951Z,22.86
2024-04-26T07:55:06.021Z,22.87
2024-04-26T07:56:05.779Z,22.88
2024-04-26T07:57:05.851Z,22.89
2024-04-26T07:58:05.740Z,22.91
2024-04-26T07:59:05.762Z,22.91
2024-04-26T08:00:05.873Z,22.93
2024-04-26T08:01:05.851Z,22.94
2024-04-26T08:02:05.793Z,22.95
2024-04-26T08:03:06.023Z,22.96
2024-04-26T08:04:06.065Z,22.97
2024-04-26T08:05:05.967Z,22.98
2024-04-26T08:06:05.927Z,22.98
2024-04-26T08:07:05.798Z,22.99
2024-04-26T08:08:05.779Z,23.00
2024-04-26T08:09:05.992Z,23.01
2024-04-26T08:10:05.879Z,23.02
2024-04-26T08:11:05.961Z,23.03
2024-04-26T08:12:06.108Z,23.05
2024-04-26T08:13:06.046Z,23.05
2024-04-26T08:14:06.126Z,23.06
2024-04-26T08:15:06.260Z,23.07
2024-04-26T08:16:06.234Z,23.08
2024-04-26T08:17:06.419Z,23.08
2024-04-26T08:18:06.601Z,23.09
2024-04-26T08:19:06.667Z,23.11
2024-04-26T08:20:06.667Z,23.11
2024-04-26T08:21:07.028Z,23.12
2024-04-26T08:22:06.924Z,23.13
2024-04-26T08:23:07.029Z,23.14
2024-04-26T08:24:07.188Z,23.15
2024-04-26T08:25:12.262Z,23.15
2024-04-26T08:26:08.269Z,23.14
2024-04-26T08:27:07.381Z,23.15
2024-04-26T08:28:07.226Z,23.16
2024-04-26T08:29:07.259Z,23.16
2024-04-26T08:30:07.335Z,23.17
2024-04-26T08:31:07.226Z,23.18
2024-04-26T08:32:07.255Z,23.19
2024-04-26T08:33:08.840Z,23.20
2024-04-26T08:34:07.375Z,23.21
2024-04-26T08:35:07.399Z,23.22
2024-04-26T08:36:07.418Z,23.23
2024-04-26T08:37:07.485Z,23.23
2024-04-26T08:38:07.250Z,23.22
2024-04-26T08:39:07.264Z,23.21
2024-04-26T08:40:07.522Z,23.21
2024-04-26T08:41:07.252Z,23.22
2024-04-26T08:42:07.320Z,23.22
2024-04-26T08:43:07.255Z,23.15
2024-04-26T08:44:07.275Z,23.03
2024-04-26T08:45:07.361Z,22.93
2024-04-26T08:46:07.234Z,22.85
2024-04-26T08:47:07.264Z,22.78
2024-04-26T08:48:07.403Z,22.74
2024-04-26T08:49:07.416Z,22.70
2024-04-26T08:50:07.241Z,22.66
2024-04-26T08:51:07.284Z,22.63
2024-04-26T08:52:07.253Z,22.62
2024-04-26T08:53:07.278Z,22.59
2024-04-26T08:54:07.332Z,22.57
2024-04-26T08:55:07.292Z,22.54
2024-04-26T08:56:07.300Z,22.52
2024-04-26T08:57:07.400Z,22.51
2024-04-26T08:58:07.266Z,22.50
2024-04-26T08:59:07.263Z,22.48
2024-04-26T09:00:07.570Z,22.48
2024-04-26T09:01:07.298Z,22.47
2024-04-26T09:02:07.286Z,22.46
2024-04-26T09:03:07.502Z,22.45
2024-04-26T09:04:07.467Z,22.45
2024-04-26T09:05:07.418Z,22.44
2024-04-26T09:06:07.331Z,22.44
2024-04-26T09:07:07.321Z,22.44
2024-04-26T09:08:07.415Z,22.44
2024-04-26T09:09:07.569Z,22.44
2024-04-26T09:10:07.634Z,22.44
2024-04-26T09:11:07.769Z,22.45
2024-04-26T09:12:07.879Z,22.45
2024-04-26T09:13:07.949Z,22.47
2024-04-26T09:14:08.030Z,22.48
2024-04-26T09:15:08.219Z,22.48
2024-04-26T09:16:08.205Z,22.48
2024-04-26T09:17:08.383Z,22.48
2024-04-26T09:18:08.795Z,22.49
2024-04-26T09:19:08.622Z,22.49
2024-04-26T09:20:08.634Z,22.50
2024-04-26T09:21:08.866Z,22.50
2024-04-26T09:22:08.813Z,22.51
2024-04-26T09:23:08.911Z,22.52
2024-04-26T09:24:09.120Z,22.53
2024-04-26T09:25:09.097Z,22.53
2024-04-26T09:26:09.239Z,22.54
2024-04-26T09:27:09.374Z,22.56
2024-04-26T09:28:09.406Z,22.56
2024-04-26T09:29:09.513Z,22.57
2024-04-26T09:30:09.695Z,22.60
2024-04-26T09:31:09.725Z,22.63
2024-04-26T09:32:17.244Z,22.64
2024-04-26T09:33:10.935Z,22.64
2024-04-26T09:34:10.034Z,22.64
2024-04-26T09:35:10.326Z,22.64
2024-04-26T09:36:10.150Z,22.66
2024-04-26T09:37:09.916Z,22.66
2024-04-26T09:38:09.875Z,22.65
2024-04-26T09:39:09.936Z,22.61
2024-04-26T09:40:09.821Z,22.60
2024-04-26T09:41:09.851Z,22.55
2024-04-26T09:42:10.164Z,22.50
2024-04-26T09:43:10.062Z,22.49
2024-04-26T09:44:10.142Z,22.40
2024-04-26T09:45:10.413Z,22.31
2024-04-26T09:46:10.387Z,22.19
2024-04-26T09:47:10.500Z,22.14
2024-04-26T09:48:10.556Z,22.14
2024-04-26T09:49:10.713Z,22.16
2024-04-26T09:50:10.615Z,22.20
2024-04-26T09:51:10.827Z,22.24
2024-04-26T09:52:10.786Z,22.30
2024-04-26T09:53:10.897Z,22.36
2024-04-26T09:54:11.104Z,22.42
2024-04-26T09:55:11.275Z,22.49
2024-04-26T09:56:11.173Z,22.54
2024-04-26T09:57:11.291Z,22.61
2024-04-26T09:58:11.394Z,22.68
2024-04-26T09:59:11.556Z,22.75
2024-04-26T10:00:11.785Z,22.81
2024-04-26T10:01:11.792Z,22.86
2024-04-26T10:02:11.914Z,22.91
2024-04-26T10:03:12.173Z,22.96
2024-04-26T10:04:12.253Z,23.00
2024-04-26T10:05:12.344Z,23.03
2024-04-26T10:06:12.408Z,23.08
2024-04-26T10:07:12.469Z,23.13
2024-04-26T10:08:12.558Z,23.15
2024-04-26T10:09:12.692Z,23.19
2024-04-26T10:10:13.405Z,23.21
2024-04-26T10:11:16.549Z,23.23
2024-04-26T10:12:13.885Z,23.25
2024-04-26T10:13:12.786Z,23.30
2024-04-26T10:14:12.838Z,23.33
2024-04-26T10:15:13.267Z,23.35
2024-04-26T10:16:13.398Z,23.39
2024-04-26T10:17:12.868Z,23.41
2024-04-26T10:18:12.928Z,23.43
2024-04-26T10:19:13.074Z,23.45
2024-04-26T10:20:12.813Z,23.47
2024-04-26T10:21:12.908Z,23.47
2024-04-26T10:22:12.796Z,23.49
2024-04-26T10:23:12.842Z,23.51
2024-04-26T10:24:12.969Z,23.52
2024-04-26T10:25:12.822Z,23.53
2024-04-26T10:26:12.787Z,23.55
2024-04-26T10:27:12.892Z,23.56
2024-04-26T10:28:12.840Z,23.57
2024-04-26T10:29:12.817Z,23.59
2024-04-26T10:30:12.924Z,23.61
2024-04-26T10:31:12.809Z,23.62
2024-04-26T10:32:12.860Z,23.63
2024-04-26T10:33:12.897Z,23.65
2024-04-26T10:34:12.973Z,23.65
2024-04-26T10:35:12.949Z,23.66
2024-04-26T10:36:13.179Z,23.69
2024-04-26T10:37:15.140Z,23.69
2024-04-26T10:38:13.920Z,23.71
2024-04-26T10:39:13.245Z,23.73
2024-04-26T10:40:13.152Z,23.72
2024-04-26T10:41:13.184Z,23.72
2024-04-26T10:42:13.297Z,23.72
2024-04-26T10:43:13.315Z,23.71
2024-04-26T10:44:13.430Z,23.70
2024-04-26T10:45:13.538Z,23.68
2024-04-26T10:46:13.529Z,23.65
2024-04-26T10:47:13.707Z,23.64
2024-04-26T10:48:13.892Z,23.61
2024-04-26T10:49:14.002Z,23.59
2024-04-26T10:50:13.926Z,23.57
2024-04-26T10:51:14.153Z,23.56
2024-04-26T10:52:14.068Z,23.54
2024-04-26T10:53:14.134Z,23.53
2024-04-26T10:54:14.280Z,23.51
2024-04-26T10:55:14.343Z,23.49
2024-04-26T10:56:14.424Z,23.48
2024-04-26T10:57:14.522Z,23.46
2024-04-26T10:58:14.602Z,23.45
2024-04-26T10:59:14.729Z,23.44
2024-04-26T11:00:14.947Z,23.43
2024-04-26T11:01:14.936Z,23.42
2024-04-26T11:02:15.018Z,23.40
2024-04-26T11:03:15.236Z,23.40
2024-04-26T11:04:15.342Z,23.39
2024-04-26T11:05:15.303Z,23.38
2024-04-26T11:06:15.430Z,23.36
2024-04-26T11:07:15.479Z,23.36
2024-04-26T11:08:15.584Z,23.35
2024-04-26T11:09:15.842Z,23.34
2024-04-26T11:10:15.782Z,23.33
2024-04-26T11:11:15.961Z,23.31
2024-04-26T11:12:15.988Z,23.31
2024-04-26T11:13:16.020Z,23.31
2024-04-26T11:14:16.211Z,23.31
2024-04-26T11:15:16.371Z,23.31
2024-04-26T11:16:16.343Z,23.30
2024-04-26T11:17:16.446Z,23.29
2024-04-26T11:18:16.815Z,23.30
2024-04-26T11:19:16.891Z,23.28
2024-04-26T11:20:16.914Z,23.28
2024-04-26T11:21:16.895Z,23.28
2024-04-26T11:22:16.968Z,23.27
2024-04-26T11:23:17.054Z,23.27
2024-04-26T11:24:17.229Z,23.26
2024-04-26T11:25:17.393Z,23.26
2024-04-26T11:26:17.321Z,23.27
2024-04-26T11:27:17.480Z,23.25
2024-04-26T11:28:17.548Z,23.27
2024-04-26T11:29:17.662Z,23.27
2024-04-26T11:30:17.892Z,23.26
2024-04-26T11:31:17.828Z,23.27
2024-04-26T11:32:17.997Z,23.26
2024-04-26T11:33:22.924Z,23.25
2024-04-26T11:34:19.184Z,23.25
2024-04-26T11:35:18.046Z,23.26
2024-04-26T11:36:18.146Z,23.26
2024-04-26T11:37:18.010Z,23.26
2024-04-26T11:38:18.019Z,23.25
2024-04-26T11:39:18.060Z,23.25
2024-04-26T11:40:18.042Z,23.27
2024-04-26T11:41:18.028Z,23.27
2024-04-26T11:42:18.153Z,23.26
2024-04-26T11:43:18.271Z,23.27
2024-04-26T11:44:18.058Z,23.26
2024-04-26T11:45:18.181Z,23.25
2024-04-26T11:46:18.123Z,23.25
2024-04-26T11:47:18.152Z,23.26
2024-04-26T11:48:18.340Z,23.25
2024-04-26T11:49:18.456Z,23.25
2024-04-26T11:50:18.477Z,23.26
2024-04-26T11:51:18.572Z,23.25
2024-04-26T11:52:18.587Z,23.26
2024-04-26T11:53:18.693Z,23.26
2024-04-26T11:54:18.844Z,23.27
2024-04-26T11:55:18.888Z,23.27
2024-04-26T11:56:18.970Z,23.29
2024-04-26T11:57:19.138Z,23.29
2024-04-26T11:58:19.160Z,23.30
2024-04-26T11:59:19.266Z,23.31
2024-04-26T12:00:19.342Z,23.32
2024-04-26T12:01:19.452Z,23.32
2024-04-26T12:02:19.484Z,23.33
2024-04-26T12:03:19.929Z,23.33
2024-04-26T12:04:19.774Z,23.33
2024-04-26T12:05:19.856Z,23.34
2024-04-26T12:06:19.691Z,23.34
2024-04-26T12:07:19.682Z,23.34
2024-04-26T12:08:19.693Z,23.35
2024-04-26T12:09:19.953Z,23.35
2024-04-26T12:10:19.744Z,23.38
2024-04-26T12:11:20.115Z,23.38
2024-04-26T12:12:19.859Z,23.39
2024-04-26T12:13:19.825Z,23.41
2024-04-26T12:14:19.845Z,23.42
2024-04-26T12:15:20.240Z,23.43
2024-04-26T12:16:19.896Z,23.42
2024-04-26T12:17:19.976Z,23.43
2024-04-26T12:18:20.103Z,23.43
2024-04-26T12:19:20.196Z,23.43
2024-04-26T12:20:20.109Z,23.44
2024-04-26T12:21:20.326Z,23.44
2024-04-26T12:22:20.262Z,23.44
2024-04-26T12:23:20.335Z,23.44
2024-04-26T12:24:20.602Z,23.44
2024-04-26T12:25:20.506Z,23.44
2024-04-26T12:26:20.594Z,23.44
2024-04-26T12:27:20.805Z,23.44
2024-04-26T12:28:20.752Z,23.44
2024-04-26T12:29:20.845Z,23.43
2024-04-26T12:30:20.940Z,23.44
2024-04-26T12:31:21.022Z,23.44
2024-04-26T12:32:21.148Z,23.45
2024-04-26T12:33:21.367Z,23.46
2024-04-26T12:34:21.386Z,23.48
2024-04-26T12:35:21.327Z,23.49
2024-04-26T12:36:21.448Z,23.52
2024-04-26T12:37:21.497Z,23.53
2024-04-26T12:38:21.546Z,23.55
2024-04-26T12:39:21.787Z,23.57
2024-04-26T12:40:21.779Z,23.59
2024-04-26T12:41:21.809Z,23.61
2024-04-26T12:42:21.902Z,23.64
2024-04-26T12:43:21.965Z,23.66
2024-04-26T12:44:22.033Z,23.68
2024-04-26T12:45:22.177Z,23.70
2024-04-26T12:46:22.149Z,23.73
2024-04-26T12:47:22.345Z,23.74
2024-04-26T12:48:22.341Z,23.76
2024-04-26T12:49:22.656Z,23.78
2024-04-26T12:50:23.518Z,23.79
2024-04-26T12:51:22.514Z,23.80
2024-04-26T12:52:22.536Z,23.82
2024-04-26T12:53:22.580Z,23.81
2024-04-26T12:54:22.640Z,23.82